sensor_id;sensor_type;location;lat;lon;timestamp;P1;durP1;ratioP1;P2;durP2;ratioP2
85095;SDS011;75436;53.502;10.030;2024-03-08T00:01:06;23.58;;;10.45;;
85095;SDS011;75436;53.502;10.030;2024-03-08T00:03:31;20.17;;;9.70;;
85095;SDS011;75436;53.502;10.030;2024-03-08T00:05:57;25.67;;;10.82;;
85095;SDS011;75436;53.502;10.030;2024-03-08T00:08:23;21.10;;;10.10;;
85095;SDS011;75436;53.502;10.030;2024-03-08T00:10:48;22.58;;;9.70;;
85095;SDS011;75436;53.502;10.030;2024-03-08T00:13:14;23.67;;;9.82;;
85095;SDS011;75436;53.502;10.030;2024-03-08T00:15:39;20.83;;;10.02;;
85095;SDS011;75436;53.502;10.030;2024-03-08T00:18:06;20.00;;;9.82;;
85095;SDS011;75436;53.502;10.030;2024-03-08T00:20:31;20.30;;;10.07;;
85095;SDS011;75436;53.502;10.030;2024-03-08T00:22:57;23.27;;;9.95;;
85095;SDS011;75436;53.502;10.030;2024-03-08T00:25:22;21.83;;;10.52;;
85095;SDS011;75436;53.502;10.030;2024-03-08T00:27:48;23.30;;;9.90;;
85095;SDS011;75436;53.502;10.030;2024-03-08T00:30:21;25.05;;;9.88;;
85095;SDS011;75436;53.502;10.030;2024-03-08T00:32:50;22.92;;;10.48;;
85095;SDS011;75436;53.502;10.030;2024-03-08T00:35:15;24.70;;;10.13;;
85095;SDS011;75436;53.502;10.030;2024-03-08T00:37:41;25.08;;;10.40;;
85095;SDS011;75436;53.502;10.030;2024-03-08T00:40:13;21.98;;;10.20;;
85095;SDS011;75436;53.502;10.030;2024-03-08T00:42:38;24.40;;;10.55;;
85095;SDS011;75436;53.502;10.030;2024-03-08T00:45:05;21.38;;;9.70;;
85095;SDS011;75436;53.502;10.030;2024-03-08T00:47:30;24.05;;;10.63;;
85095;SDS011;75436;53.502;10.030;2024-03-08T00:49:56;20.92;;;11.00;;
85095;SDS011;75436;53.502;10.030;2024-03-08T00:52:21;22.80;;;10.57;;
85095;SDS011;75436;53.502;10.030;2024-03-08T00:54:49;22.90;;;10.18;;
85095;SDS011;75436;53.502;10.030;2024-03-08T00:57:14;25.13;;;9.98;;
85095;SDS011;75436;53.502;10.030;2024-03-08T00:59:40;22.08;;;10.18;;
85095;SDS011;75436;53.502;10.030;2024-03-08T01:02:05;25.25;;;10.10;;
85095;SDS011;75436;53.502;10.030;2024-03-08T01:04:31;19.70;;;9.32;;
85095;SDS011;75436;53.502;10.030;2024-03-08T01:06:58;22.08;;;10.15;;
85095;SDS011;75436;53.502;10.030;2024-03-08T01:09:24;24.48;;;10.23;;
85095;SDS011;75436;53.502;10.030;2024-03-08T01:11:51;22.40;;;10.07;;
85095;SDS011;75436;53.502;10.030;2024-03-08T01:14:20;22.75;;;9.63;;
85095;SDS011;75436;53.502;10.030;2024-03-08T01:16:47;26.80;;;10.45;;
85095;SDS011;75436;53.502;10.030;2024-03-08T01:19:14;29.67;;;10.45;;
85095;SDS011;75436;53.502;10.030;2024-03-08T01:21:40;21.10;;;9.82;;
85095;SDS011;75436;53.502;10.030;2024-03-08T01:24:06;21.38;;;10.23;;
85095;SDS011;75436;53.502;10.030;2024-03-08T01:26:32;25.33;;;10.38;;
85095;SDS011;75436;53.502;10.030;2024-03-08T01:28:59;20.52;;;9.90;;
85095;SDS011;75436;53.502;10.030;2024-03-08T01:31:25;23.50;;;10.45;;
85095;SDS011;75436;53.502;10.030;2024-03-08T01:33:51;24.23;;;10.07;;
85095;SDS011;75436;53.502;10.030;2024-03-08T01:36:16;25.00;;;10.88;;
85095;SDS011;75436;53.502;10.030;2024-03-08T01:38:44;25.17;;;10.45;;
85095;SDS011;75436;53.502;10.030;2024-03-08T01:41:10;25.88;;;10.70;;
85095;SDS011;75436;53.502;10.030;2024-03-08T01:43:35;22.67;;;11.05;;
85095;SDS011;75436;53.502;10.030;2024-03-08T01:46:00;27.52;;;10.27;;
85095;SDS011;75436;53.502;10.030;2024-03-08T01:48:27;23.42;;;11.18;;
85095;SDS011;75436;53.502;10.030;2024-03-08T01:50:54;21.50;;;10.35;;
85095;SDS011;75436;53.502;10.030;2024-03-08T01:53:22;31.13;;;11.77;;
85095;SDS011;75436;53.502;10.030;2024-03-08T01:55:52;26.13;;;10.27;;
85095;SDS011;75436;53.502;10.030;2024-03-08T01:58:22;20.88;;;10.02;;
85095;SDS011;75436;53.502;10.030;2024-03-08T02:00:48;20.55;;;9.98;;
85095;SDS011;75436;53.502;10.030;2024-03-08T02:03:14;23.33;;;9.95;;
85095;SDS011;75436;53.502;10.030;2024-03-08T02:05:44;24.42;;;10.82;;
85095;SDS011;75436;53.502;10.030;2024-03-08T02:08:09;24.65;;;9.77;;
85095;SDS011;75436;53.502;10.030;2024-03-08T02:10:41;27.23;;;10.70;;
85095;SDS011;75436;53.502;10.030;2024-03-08T02:13:12;31.00;;;11.48;;
85095;SDS011;75436;53.502;10.030;2024-03-08T02:15:53;25.20;;;9.95;;
85095;SDS011;75436;53.502;10.030;2024-03-08T02:18:25;27.88;;;10.40;;
85095;SDS011;75436;53.502;10.030;2024-03-08T02:20:52;23.48;;;10.07;;
85095;SDS011;75436;53.502;10.030;2024-03-08T02:23:19;27.02;;;11.48;;
85095;SDS011;75436;53.502;10.030;2024-03-08T02:25:46;26.27;;;10.88;;
85095;SDS011;75436;53.502;10.030;2024-03-08T02:28:12;25.30;;;11.13;;
85095;SDS011;75436;53.502;10.030;2024-03-08T02:30:39;24.00;;;9.82;;
85095;SDS011;75436;53.502;10.030;2024-03-08T02:33:05;25.33;;;11.05;;
85095;SDS011;75436;53.502;10.030;2024-03-08T02:35:31;19.38;;;9.30;;
85095;SDS011;75436;53.502;10.030;2024-03-08T02:37:57;22.70;;;9.93;;
85095;SDS011;75436;53.502;10.030;2024-03-08T02:40:23;25.75;;;10.63;;
85095;SDS011;75436;53.502;10.030;2024-03-08T02:42:49;19.70;;;9.82;;
85095;SDS011;75436;53.502;10.030;2024-03-08T02:45:14;24.58;;;10.82;;
85095;SDS011;75436;53.502;10.030;2024-03-08T02:47:40;25.50;;;10.50;;
85095;SDS011;75436;53.502;10.030;2024-03-08T02:50:06;23.45;;;10.30;;
85095;SDS011;75436;53.502;10.030;2024-03-08T02:52:33;22.92;;;10.63;;
85095;SDS011;75436;53.502;10.030;2024-03-08T02:55:00;33.28;;;11.02;;
85095;SDS011;75436;53.502;10.030;2024-03-08T02:57:26;26.30;;;10.75;;
85095;SDS011;75436;53.502;10.030;2024-03-08T02:59:53;29.20;;;11.52;;
85095;SDS011;75436;53.502;10.030;2024-03-08T03:02:19;22.02;;;9.10;;
85095;SDS011;75436;53.502;10.030;2024-03-08T03:04:44;28.83;;;11.65;;
85095;SDS011;75436;53.502;10.030;2024-03-08T03:07:10;23.00;;;10.63;;
85095;SDS011;75436;53.502;10.030;2024-03-08T03:09:37;25.15;;;10.35;;
85095;SDS011;75436;53.502;10.030;2024-03-08T03:12:02;28.10;;;11.20;;
85095;SDS011;75436;53.502;10.030;2024-03-08T03:14:28;28.15;;;11.20;;
85095;SDS011;75436;53.502;10.030;2024-03-08T03:16:53;24.35;;;10.98;;
85095;SDS011;75436;53.502;10.030;2024-03-08T03:19:20;22.13;;;10.18;;
85095;SDS011;75436;53.502;10.030;2024-03-08T03:21:46;27.55;;;10.90;;
85095;SDS011;75436;53.502;10.030;2024-03-08T03:24:12;24.67;;;10.40;;
85095;SDS011;75436;53.502;10.030;2024-03-08T03:26:38;27.08;;;11.35;;
85095;SDS011;75436;53.502;10.030;2024-03-08T03:29:05;27.50;;;11.82;;
85095;SDS011;75436;53.502;10.030;2024-03-08T03:31:31;25.48;;;10.13;;
85095;SDS011;75436;53.502;10.030;2024-03-08T03:33:57;26.80;;;9.90;;
85095;SDS011;75436;53.502;10.030;2024-03-08T03:36:27;31.50;;;10.95;;
85095;SDS011;75436;53.502;10.030;2024-03-08T03:38:53;24.83;;;11.32;;
85095;SDS011;75436;53.502;10.030;2024-03-08T03:41:30;24.08;;;10.90;;
85095;SDS011;75436;53.502;10.030;2024-03-08T03:43:55;27.17;;;10.93;;
85095;SDS011;75436;53.502;10.030;2024-03-08T03:46:21;29.38;;;11.27;;
85095;SDS011;75436;53.502;10.030;2024-03-08T03:48:46;26.75;;;10.50;;
85095;SDS011;75436;53.502;10.030;2024-03-08T03:51:11;24.98;;;10.50;;
85095;SDS011;75436;53.502;10.030;2024-03-08T03:53:37;28.33;;;10.95;;
85095;SDS011;75436;53.502;10.030;2024-03-08T03:56:03;27.08;;;11.32;;
85095;SDS011;75436;53.502;10.030;2024-03-08T03:58:32;28.10;;;11.50;;
85095;SDS011;75436;53.502;10.030;2024-03-08T04:00:58;24.20;;;10.45;;
85095;SDS011;75436;53.502;10.030;2024-03-08T04:03:23;25.73;;;11.40;;
85095;SDS011;75436;53.502;10.030;2024-03-08T04:05:48;25.25;;;10.43;;
85095;SDS011;75436;53.502;10.030;2024-03-08T04:08:14;29.15;;;10.60;;
85095;SDS011;75436;53.502;10.030;2024-03-08T04:10:40;26.20;;;11.07;;
85095;SDS011;75436;53.502;10.030;2024-03-08T04:13:08;25.33;;;11.30;;
85095;SDS011;75436;53.502;10.030;2024-03-08T04:15:34;28.70;;;11.95;;
85095;SDS011;75436;53.502;10.030;2024-03-08T04:18:00;23.42;;;10.60;;
85095;SDS011;75436;53.502;10.030;2024-03-08T04:20:26;28.40;;;11.35;;
85095;SDS011;75436;53.502;10.030;2024-03-08T04:22:51;27.83;;;12.45;;
85095;SDS011;75436;53.502;10.030;2024-03-08T04:25:17;27.33;;;12.23;;
85095;SDS011;75436;53.502;10.030;2024-03-08T04:27:42;26.40;;;10.52;;
85095;SDS011;75436;53.502;10.030;2024-03-08T04:30:09;27.65;;;12.00;;
85095;SDS011;75436;53.502;10.030;2024-03-08T04:32:35;25.90;;;10.90;;
85095;SDS011;75436;53.502;10.030;2024-03-08T04:35:01;28.65;;;11.15;;
85095;SDS011;75436;53.502;10.030;2024-03-08T04:37:27;29.90;;;10.85;;
85095;SDS011;75436;53.502;10.030;2024-03-08T04:39:54;28.05;;;11.32;;
85095;SDS011;75436;53.502;10.030;2024-03-08T04:42:20;27.15;;;11.18;;
85095;SDS011;75436;53.502;10.030;2024-03-08T04:44:46;28.05;;;11.40;;
85095;SDS011;75436;53.502;10.030;2024-03-08T04:47:11;29.00;;;11.02;;
85095;SDS011;75436;53.502;10.030;2024-03-08T04:49:37;26.80;;;10.57;;
85095;SDS011;75436;53.502;10.030;2024-03-08T04:52:02;31.67;;;11.38;;
85095;SDS011;75436;53.502;10.030;2024-03-08T04:54:29;28.92;;;11.32;;
85095;SDS011;75436;53.502;10.030;2024-03-08T04:56:55;24.08;;;11.13;;
85095;SDS011;75436;53.502;10.030;2024-03-08T04:59:21;27.35;;;11.07;;
85095;SDS011;75436;53.502;10.030;2024-03-08T05:01:46;26.63;;;11.70;;
85095;SDS011;75436;53.502;10.030;2024-03-08T05:04:12;24.35;;;9.85;;
85095;SDS011;75436;53.502;10.030;2024-03-08T05:06:38;28.42;;;11.60;;
85095;SDS011;75436;53.502;10.030;2024-03-08T05:09:04;29.23;;;10.63;;
85095;SDS011;75436;53.502;10.030;2024-03-08T05:11:45;27.38;;;10.85;;
85095;SDS011;75436;53.502;10.030;2024-03-08T05:14:15;28.58;;;12.23;;
85095;SDS011;75436;53.502;10.030;2024-03-08T05:16:46;26.40;;;11.55;;
85095;SDS011;75436;53.502;10.030;2024-03-08T05:19:15;25.73;;;11.77;;
85095;SDS011;75436;53.502;10.030;2024-03-08T05:21:45;26.58;;;10.43;;
85095;SDS011;75436;53.502;10.030;2024-03-08T05:24:12;26.63;;;11.15;;
85095;SDS011;75436;53.502;10.030;2024-03-08T05:26:38;23.10;;;10.38;;
85095;SDS011;75436;53.502;10.030;2024-03-08T05:29:04;29.30;;;11.05;;
85095;SDS011;75436;53.502;10.030;2024-03-08T05:31:31;30.02;;;11.25;;
85095;SDS011;75436;53.502;10.030;2024-03-08T05:34:18;22.73;;;10.00;;
85095;SDS011;75436;53.502;10.030;2024-03-08T05:36:47;25.92;;;10.43;;
85095;SDS011;75436;53.502;10.030;2024-03-08T05:39:15;23.63;;;10.65;;
85095;SDS011;75436;53.502;10.030;2024-03-08T05:41:42;30.30;;;11.73;;
85095;SDS011;75436;53.502;10.030;2024-03-08T05:44:10;28.27;;;10.98;;
85095;SDS011;75436;53.502;10.030;2024-03-08T05:46:36;23.63;;;9.77;;
85095;SDS011;75436;53.502;10.030;2024-03-08T05:49:02;32.38;;;12.07;;
85095;SDS011;75436;53.502;10.030;2024-03-08T05:51:31;25.23;;;9.98;;
85095;SDS011;75436;53.502;10.030;2024-03-08T05:54:05;23.08;;;10.00;;
85095;SDS011;75436;53.502;10.030;2024-03-08T05:56:34;27.05;;;11.05;;
85095;SDS011;75436;53.502;10.030;2024-03-08T05:58:59;26.40;;;11.40;;
85095;SDS011;75436;53.502;10.030;2024-03-08T06:01:25;26.95;;;11.80;;
85095;SDS011;75436;53.502;10.030;2024-03-08T06:03:51;29.42;;;11.70;;
85095;SDS011;75436;53.502;10.030;2024-03-08T06:06:20;25.60;;;9.93;;
85095;SDS011;75436;53.502;10.030;2024-03-08T06:08:46;22.88;;;10.02;;
85095;SDS011;75436;53.502;10.030;2024-03-08T06:11:14;28.45;;;10.88;;
85095;SDS011;75436;53.502;10.030;2024-03-08T06:13:42;28.58;;;11.43;;
85095;SDS011;75436;53.502;10.030;2024-03-08T06:16:07;28.02;;;11.48;;
85095;SDS011;75436;53.502;10.030;2024-03-08T06:18:33;28.30;;;11.10;;
85095;SDS011;75436;53.502;10.030;2024-03-08T06:21:04;27.33;;;10.82;;
85095;SDS011;75436;53.502;10.030;2024-03-08T06:23:33;29.70;;;10.77;;
85095;SDS011;75436;53.502;10.030;2024-03-08T06:26:03;28.25;;;10.88;;
85095;SDS011;75436;53.502;10.030;2024-03-08T06:28:31;25.50;;;11.75;;
85095;SDS011;75436;53.502;10.030;2024-03-08T06:30:57;35.17;;;12.85;;
85095;SDS011;75436;53.502;10.030;2024-03-08T06:33:27;27.08;;;11.05;;
85095;SDS011;75436;53.502;10.030;2024-03-08T06:35:56;30.10;;;11.63;;
85095;SDS011;75436;53.502;10.030;2024-03-08T06:38:25;28.75;;;11.25;;
85095;SDS011;75436;53.502;10.030;2024-03-08T06:40:50;29.95;;;11.05;;
85095;SDS011;75436;53.502;10.030;2024-03-08T06:43:17;26.60;;;11.98;;
85095;SDS011;75436;53.502;10.030;2024-03-08T06:45:43;27.77;;;10.88;;
85095;SDS011;75436;53.502;10.030;2024-03-08T06:48:19;32.47;;;11.57;;
85095;SDS011;75436;53.502;10.030;2024-03-08T06:50:45;32.13;;;11.52;;
85095;SDS011;75436;53.502;10.030;2024-03-08T06:53:12;25.88;;;11.45;;
85095;SDS011;75436;53.502;10.030;2024-03-08T06:55:38;33.63;;;11.82;;
85095;SDS011;75436;53.502;10.030;2024-03-08T06:58:04;30.67;;;11.98;;
85095;SDS011;75436;53.502;10.030;2024-03-08T07:00:31;27.02;;;11.60;;
85095;SDS011;75436;53.502;10.030;2024-03-08T07:02:57;32.17;;;12.60;;
85095;SDS011;75436;53.502;10.030;2024-03-08T07:05:25;28.35;;;12.25;;
85095;SDS011;75436;53.502;10.030;2024-03-08T07:07:56;29.35;;;11.95;;
85095;SDS011;75436;53.502;10.030;2024-03-08T07:10:21;26.60;;;10.38;;
85095;SDS011;75436;53.502;10.030;2024-03-08T07:12:49;27.35;;;11.80;;
85095;SDS011;75436;53.502;10.030;2024-03-08T07:15:16;28.90;;;12.18;;
85095;SDS011;75436;53.502;10.030;2024-03-08T07:17:44;28.48;;;12.82;;
85095;SDS011;75436;53.502;10.030;2024-03-08T07:20:10;30.90;;;12.05;;
85095;SDS011;75436;53.502;10.030;2024-03-08T07:22:38;28.75;;;11.40;;
85095;SDS011;75436;53.502;10.030;2024-03-08T07:25:07;28.48;;;11.60;;
85095;SDS011;75436;53.502;10.030;2024-03-08T07:27:46;29.83;;;12.48;;
85095;SDS011;75436;53.502;10.030;2024-03-08T07:30:12;22.77;;;10.48;;
85095;SDS011;75436;53.502;10.030;2024-03-08T07:32:38;27.98;;;12.30;;
85095;SDS011;75436;53.502;10.030;2024-03-08T07:35:03;33.58;;;12.82;;
85095;SDS011;75436;53.502;10.030;2024-03-08T07:37:29;26.27;;;11.65;;
85095;SDS011;75436;53.502;10.030;2024-03-08T07:39:56;27.05;;;11.43;;
85095;SDS011;75436;53.502;10.030;2024-03-08T07:42:23;29.58;;;11.57;;
85095;SDS011;75436;53.502;10.030;2024-03-08T07:44:48;27.77;;;11.75;;
85095;SDS011;75436;53.502;10.030;2024-03-08T07:47:15;31.98;;;12.75;;
85095;SDS011;75436;53.502;10.030;2024-03-08T07:49:42;18.30;;;9.50;;
85095;SDS011;75436;53.502;10.030;2024-03-08T07:52:09;25.27;;;11.00;;
85095;SDS011;75436;53.502;10.030;2024-03-08T07:54:34;32.47;;;12.98;;
85095;SDS011;75436;53.502;10.030;2024-03-08T07:57:00;27.02;;;11.27;;
85095;SDS011;75436;53.502;10.030;2024-03-08T07:59:28;27.38;;;11.68;;
85095;SDS011;75436;53.502;10.030;2024-03-08T08:01:54;28.80;;;13.48;;
85095;SDS011;75436;53.502;10.030;2024-03-08T08:04:19;26.60;;;11.70;;
85095;SDS011;75436;53.502;10.030;2024-03-08T08:06:49;30.55;;;11.63;;
85095;SDS011;75436;53.502;10.030;2024-03-08T08:09:16;25.00;;;11.43;;
85095;SDS011;75436;53.502;10.030;2024-03-08T08:11:47;26.83;;;11.60;;
85095;SDS011;75436;53.502;10.030;2024-03-08T08:14:12;27.70;;;11.73;;
85095;SDS011;75436;53.502;10.030;2024-03-08T08:16:38;30.13;;;13.70;;
85095;SDS011;75436;53.502;10.030;2024-03-08T08:19:07;21.60;;;10.25;;
85095;SDS011;75436;53.502;10.030;2024-03-08T08:21:35;29.77;;;11.90;;
85095;SDS011;75436;53.502;10.030;2024-03-08T08:24:03;25.73;;;11.82;;
85095;SDS011;75436;53.502;10.030;2024-03-08T08:26:29;25.85;;;12.70;;
85095;SDS011;75436;53.502;10.030;2024-03-08T08:28:55;26.17;;;11.43;;
85095;SDS011;75436;53.502;10.030;2024-03-08T08:31:21;26.42;;;11.65;;
85095;SDS011;75436;53.502;10.030;2024-03-08T08:33:46;28.08;;;12.52;;
85095;SDS011;75436;53.502;10.030;2024-03-08T08:36:14;28.55;;;12.30;;
85095;SDS011;75436;53.502;10.030;2024-03-08T08:38:39;25.45;;;11.95;;
85095;SDS011;75436;53.502;10.030;2024-03-08T08:41:05;27.73;;;11.95;;
85095;SDS011;75436;53.502;10.030;2024-03-08T08:43:31;25.88;;;11.98;;
85095;SDS011;75436;53.502;10.030;2024-03-08T08:45:58;27.98;;;11.63;;
85095;SDS011;75436;53.502;10.030;2024-03-08T08:48:23;28.35;;;12.52;;
85095;SDS011;75436;53.502;10.030;2024-03-08T08:50:49;29.70;;;12.02;;
85095;SDS011;75436;53.502;10.030;2024-03-08T08:53:17;35.08;;;13.80;;
85095;SDS011;75436;53.502;10.030;2024-03-08T08:55:43;29.55;;;13.32;;
85095;SDS011;75436;53.502;10.030;2024-03-08T08:58:10;25.55;;;11.32;;
85095;SDS011;75436;53.502;10.030;2024-03-08T09:00:36;32.67;;;12.10;;
85095;SDS011;75436;53.502;10.030;2024-03-08T09:03:02;25.67;;;11.75;;
85095;SDS011;75436;53.502;10.030;2024-03-08T09:05:27;26.45;;;11.50;;
85095;SDS011;75436;53.502;10.030;2024-03-08T09:07:53;29.13;;;12.73;;
85095;SDS011;75436;53.502;10.030;2024-03-08T09:10:19;30.40;;;12.15;;
85095;SDS011;75436;53.502;10.030;2024-03-08T09:12:44;23.83;;;12.45;;
85095;SDS011;75436;53.502;10.030;2024-03-08T09:15:10;22.02;;;11.20;;
85095;SDS011;75436;53.502;10.030;2024-03-08T09:17:38;22.25;;;11.27;;
85095;SDS011;75436;53.502;10.030;2024-03-08T09:20:09;25.55;;;11.90;;
85095;SDS011;75436;53.502;10.030;2024-03-08T09:22:39;24.30;;;12.02;;
85095;SDS011;75436;53.502;10.030;2024-03-08T09:25:05;23.35;;;11.48;;
85095;SDS011;75436;53.502;10.030;2024-03-08T09:27:32;25.35;;;10.85;;
85095;SDS011;75436;53.502;10.030;2024-03-08T09:29:59;24.17;;;12.02;;
85095;SDS011;75436;53.502;10.030;2024-03-08T09:32:24;25.45;;;12.00;;
85095;SDS011;75436;53.502;10.030;2024-03-08T09:34:49;23.30;;;12.23;;
85095;SDS011;75436;53.502;10.030;2024-03-08T09:37:15;21.90;;;11.00;;
85095;SDS011;75436;53.502;10.030;2024-03-08T09:39:41;21.50;;;11.40;;
85095;SDS011;75436;53.502;10.030;2024-03-08T09:42:07;28.38;;;11.27;;
85095;SDS011;75436;53.502;10.030;2024-03-08T09:44:33;19.23;;;10.35;;
85095;SDS011;75436;53.502;10.030;2024-03-08T09:47:00;20.83;;;10.95;;
85095;SDS011;75436;53.502;10.030;2024-03-08T09:49:27;21.23;;;9.95;;
85095;SDS011;75436;53.502;10.030;2024-03-08T09:51:53;22.33;;;11.27;;
85095;SDS011;75436;53.502;10.030;2024-03-08T09:54:20;22.27;;;10.80;;
85095;SDS011;75436;53.502;10.030;2024-03-08T09:56:47;25.10;;;11.50;;
85095;SDS011;75436;53.502;10.030;2024-03-08T09:59:16;22.10;;;10.77;;
85095;SDS011;75436;53.502;10.030;2024-03-08T10:01:47;23.08;;;11.32;;
85095;SDS011;75436;53.502;10.030;2024-03-08T10:04:13;25.08;;;11.73;;
85095;SDS011;75436;53.502;10.030;2024-03-08T10:06:39;24.92;;;11.30;;
85095;SDS011;75436;53.502;10.030;2024-03-08T10:09:05;23.45;;;12.30;;
85095;SDS011;75436;53.502;10.030;2024-03-08T10:11:33;28.00;;;12.15;;
85095;SDS011;75436;53.502;10.030;2024-03-08T10:14:00;20.25;;;10.02;;
85095;SDS011;75436;53.502;10.030;2024-03-08T10:16:27;21.92;;;11.07;;
85095;SDS011;75436;53.502;10.030;2024-03-08T10:18:53;27.00;;;11.50;;
85095;SDS011;75436;53.502;10.030;2024-03-08T10:21:20;23.35;;;11.80;;
85095;SDS011;75436;53.502;10.030;2024-03-08T10:23:46;24.02;;;10.98;;
85095;SDS011;75436;53.502;10.030;2024-03-08T10:26:13;22.50;;;11.13;;
85095;SDS011;75436;53.502;10.030;2024-03-08T10:28:41;21.95;;;10.82;;
85095;SDS011;75436;53.502;10.030;2024-03-08T10:31:13;24.50;;;12.18;;
85095;SDS011;75436;53.502;10.030;2024-03-08T10:33:42;23.48;;;12.02;;
85095;SDS011;75436;53.502;10.030;2024-03-08T10:36:09;27.25;;;11.85;;
85095;SDS011;75436;53.502;10.030;2024-03-08T10:38:40;26.10;;;11.50;;
85095;SDS011;75436;53.502;10.030;2024-03-08T10:41:08;20.73;;;10.68;;
85095;SDS011;75436;53.502;10.030;2024-03-08T10:43:41;26.83;;;11.93;;
85095;SDS011;75436;53.502;10.030;2024-03-08T10:46:41;21.02;;;11.43;;
85095;SDS011;75436;53.502;10.030;2024-03-08T10:49:12;19.27;;;10.68;;
85095;SDS011;75436;53.502;10.030;2024-03-08T10:51:42;20.45;;;10.68;;
85095;SDS011;75436;53.502;10.030;2024-03-08T10:54:10;23.20;;;11.02;;
85095;SDS011;75436;53.502;10.030;2024-03-08T10:56:38;24.25;;;11.65;;
85095;SDS011;75436;53.502;10.030;2024-03-08T10:59:04;18.45;;;10.00;;
85095;SDS011;75436;53.502;10.030;2024-03-08T11:01:33;21.23;;;9.73;;
85095;SDS011;75436;53.502;10.030;2024-03-08T11:03:59;22.58;;;11.18;;
85095;SDS011;75436;53.502;10.030;2024-03-08T11:09:03;21.67;;;10.38;;
85095;SDS011;75436;53.502;10.030;2024-03-08T11:11:38;20.05;;;9.85;;
85095;SDS011;75436;53.502;10.030;2024-03-08T11:14:07;17.58;;;9.90;;
85095;SDS011;75436;53.502;10.030;2024-03-08T11:17:13;18.48;;;9.68;;
85095;SDS011;75436;53.502;10.030;2024-03-08T11:19:38;18.48;;;9.50;;
85095;SDS011;75436;53.502;10.030;2024-03-08T11:22:20;17.88;;;9.75;;
85095;SDS011;75436;53.502;10.030;2024-03-08T11:24:48;21.60;;;10.35;;
85095;SDS011;75436;53.502;10.030;2024-03-08T11:27:14;16.05;;;9.20;;
85095;SDS011;75436;53.502;10.030;2024-03-08T11:29:40;20.63;;;9.40;;
85095;SDS011;75436;53.502;10.030;2024-03-08T11:34:46;18.60;;;10.45;;
85095;SDS011;75436;53.502;10.030;2024-03-08T11:37:15;20.33;;;10.10;;
85095;SDS011;75436;53.502;10.030;2024-03-08T11:40:01;21.55;;;9.70;;
85095;SDS011;75436;53.502;10.030;2024-03-08T11:42:29;19.08;;;9.30;;
85095;SDS011;75436;53.502;10.030;2024-03-08T11:44:55;17.35;;;9.98;;
85095;SDS011;75436;53.502;10.030;2024-03-08T11:47:21;19.30;;;10.05;;
85095;SDS011;75436;53.502;10.030;2024-03-08T11:49:47;17.90;;;10.07;;
85095;SDS011;75436;53.502;10.030;2024-03-08T11:52:13;17.35;;;9.50;;
85095;SDS011;75436;53.502;10.030;2024-03-08T11:54:41;17.17;;;9.52;;
85095;SDS011;75436;53.502;10.030;2024-03-08T11:57:08;17.92;;;9.63;;
85095;SDS011;75436;53.502;10.030;2024-03-08T11:59:35;20.10;;;9.45;;
85095;SDS011;75436;53.502;10.030;2024-03-08T12:02:02;18.67;;;10.35;;
85095;SDS011;75436;53.502;10.030;2024-03-08T12:04:30;19.33;;;9.40;;
85095;SDS011;75436;53.502;10.030;2024-03-08T12:06:59;19.98;;;10.18;;
85095;SDS011;75436;53.502;10.030;2024-03-08T12:09:33;15.73;;;9.07;;
85095;SDS011;75436;53.502;10.030;2024-03-08T12:12:01;17.45;;;9.25;;
85095;SDS011;75436;53.502;10.030;2024-03-08T12:14:29;19.92;;;10.60;;
85095;SDS011;75436;53.502;10.030;2024-03-08T12:16:55;18.60;;;9.73;;
85095;SDS011;75436;53.502;10.030;2024-03-08T12:19:20;17.25;;;9.70;;
85095;SDS011;75436;53.502;10.030;2024-03-08T12:21:46;24.75;;;9.80;;
85095;SDS011;75436;53.502;10.030;2024-03-08T12:24:18;20.33;;;9.57;;
85095;SDS011;75436;53.502;10.030;2024-03-08T12:26:47;18.52;;;8.82;;
85095;SDS011;75436;53.502;10.030;2024-03-08T12:29:14;17.65;;;9.43;;
85095;SDS011;75436;53.502;10.030;2024-03-08T12:31:39;18.92;;;9.25;;
85095;SDS011;75436;53.502;10.030;2024-03-08T12:34:07;18.50;;;9.20;;
85095;SDS011;75436;53.502;10.030;2024-03-08T12:36:34;20.42;;;9.82;;
85095;SDS011;75436;53.502;10.030;2024-03-08T12:39:03;15.20;;;8.75;;
85095;SDS011;75436;53.502;10.030;2024-03-08T12:41:32;16.27;;;9.50;;
85095;SDS011;75436;53.502;10.030;2024-03-08T12:44:04;19.27;;;9.60;;
85095;SDS011;75436;53.502;10.030;2024-03-08T12:46:32;17.80;;;9.27;;
85095;SDS011;75436;53.502;10.030;2024-03-08T12:48:58;17.85;;;9.98;;
85095;SDS011;75436;53.502;10.030;2024-03-08T12:51:24;15.82;;;8.68;;
85095;SDS011;75436;53.502;10.030;2024-03-08T12:53:50;21.10;;;10.65;;
85095;SDS011;75436;53.502;10.030;2024-03-08T12:56:28;38.67;;;12.38;;
85095;SDS011;75436;53.502;10.030;2024-03-08T12:58:57;18.85;;;9.18;;
85095;SDS011;75436;53.502;10.030;2024-03-08T13:01:22;17.35;;;9.43;;
85095;SDS011;75436;53.502;10.030;2024-03-08T13:03:48;16.65;;;9.23;;
85095;SDS011;75436;53.502;10.030;2024-03-08T13:06:14;17.00;;;9.57;;
85095;SDS011;75436;53.502;10.030;2024-03-08T13:08:41;20.30;;;8.82;;
85095;SDS011;75436;53.502;10.030;2024-03-08T13:11:09;16.20;;;8.95;;
85095;SDS011;75436;53.502;10.030;2024-03-08T13:13:39;15.93;;;8.52;;
85095;SDS011;75436;53.502;10.030;2024-03-08T13:16:06;15.20;;;8.48;;
85095;SDS011;75436;53.502;10.030;2024-03-08T13:18:35;18.17;;;9.05;;
85095;SDS011;75436;53.502;10.030;2024-03-08T13:21:01;15.52;;;8.73;;
85095;SDS011;75436;53.502;10.030;2024-03-08T13:23:33;17.30;;;8.85;;
85095;SDS011;75436;53.502;10.030;2024-03-08T13:26:04;14.90;;;8.30;;
85095;SDS011;75436;53.502;10.030;2024-03-08T13:28:31;15.68;;;9.45;;
85095;SDS011;75436;53.502;10.030;2024-03-08T13:31:01;16.20;;;8.57;;
85095;SDS011;75436;53.502;10.030;2024-03-08T13:33:31;18.77;;;9.25;;
85095;SDS011;75436;53.502;10.030;2024-03-08T13:36:00;14.75;;;8.85;;
85095;SDS011;75436;53.502;10.030;2024-03-08T13:38:46;18.75;;;8.85;;
85095;SDS011;75436;53.502;10.030;2024-03-08T13:41:13;15.70;;;8.20;;
85095;SDS011;75436;53.502;10.030;2024-03-08T13:43:42;16.02;;;8.73;;
85095;SDS011;75436;53.502;10.030;2024-03-08T13:46:08;17.23;;;9.02;;
85095;SDS011;75436;53.502;10.030;2024-03-08T13:48:35;12.88;;;7.47;;
85095;SDS011;75436;53.502;10.030;2024-03-08T13:51:02;17.08;;;7.93;;
85095;SDS011;75436;53.502;10.030;2024-03-08T13:53:31;13.57;;;7.55;;
85095;SDS011;75436;53.502;10.030;2024-03-08T13:55:57;20.45;;;8.27;;
85095;SDS011;75436;53.502;10.030;2024-03-08T13:58:22;16.90;;;8.93;;
85095;SDS011;75436;53.502;10.030;2024-03-08T14:00:47;16.25;;;8.40;;
85095;SDS011;75436;53.502;10.030;2024-03-08T14:03:13;15.20;;;8.15;;
85095;SDS011;75436;53.502;10.030;2024-03-08T14:05:39;13.93;;;7.80;;
85095;SDS011;75436;53.502;10.030;2024-03-08T14:08:06;16.02;;;8.30;;
85095;SDS011;75436;53.502;10.030;2024-03-08T14:10:33;13.38;;;7.65;;
85095;SDS011;75436;53.502;10.030;2024-03-08T14:13:04;15.73;;;7.95;;
85095;SDS011;75436;53.502;10.030;2024-03-08T14:15:31;14.05;;;7.78;;
85095;SDS011;75436;53.502;10.030;2024-03-08T14:17:57;18.23;;;8.90;;
85095;SDS011;75436;53.502;10.030;2024-03-08T14:20:23;18.00;;;8.98;;